sensor_id;sensor_type;location;lat;lon;timestamp;pressure;altitude;pressure_sealevel;temperature;humidity
72961;BME280;61141;46.204;19.774;2023-06-22T00:00:17;100676.03;;;23.82;89.81
72961;BME280;61141;46.204;19.774;2023-06-22T00:03:22;100674.16;;;23.79;88.75
72961;BME280;61141;46.204;19.774;2023-06-22T00:06:25;100661.69;;;23.92;87.15
72961;BME280;61141;46.204;19.774;2023-06-22T00:09:28;100659.16;;;23.73;86.59
72961;BME280;61141;46.204;19.774;2023-06-22T00:12:31;100668.88;;;23.81;85.96
72961;BME280;61141;46.204;19.774;2023-06-22T00:15:35;100671.81;;;23.77;85.50
72961;BME280;61141;46.204;19.774;2023-06-22T00:18:38;100662.75;;;23.73;85.00
72961;BME280;61141;46.204;19.774;2023-06-22T00:21:41;100658.94;;;23.67;84.69
72961;BME280;61141;46.204;19.774;2023-06-22T00:24:45;100654.13;;;23.68;84.34
72961;BME280;61141;46.204;19.774;2023-06-22T00:27:48;100653.28;;;23.58;84.73
72961;BME280;61141;46.204;19.774;2023-06-22T00:30:51;100640.63;;;23.66;83.85
72961;BME280;61141;46.204;19.774;2023-06-22T00:33:54;100633.44;;;23.65;83.02
72961;BME280;61141;46.204;19.774;2023-06-22T00:36:57;100636.72;;;23.64;83.12
72961;BME280;61141;46.204;19.774;2023-06-22T00:40:00;100636.91;;;23.69;82.37
72961;BME280;61141;46.204;19.774;2023-06-22T00:43:03;100642.94;;;23.80;81.86
72961;BME280;61141;46.204;19.774;2023-06-22T00:46:07;100627.28;;;23.70;81.76
72961;BME280;61141;46.204;19.774;2023-06-22T00:49:11;100619.00;;;23.67;81.40
72961;BME280;61141;46.204;19.774;2023-06-22T00:52:14;100629.53;;;23.63;80.95
72961;BME280;61141;46.204;19.774;2023-06-22T00:55:25;100627.06;;;23.65;80.40
72961;BME280;61141;46.204;19.774;2023-06-22T00:58:29;100622.25;;;23.65;80.49
72961;BME280;61141;46.204;19.774;2023-06-22T01:01:32;100618.88;;;23.70;80.04
72961;BME280;61141;46.204;19.774;2023-06-22T01:04:38;100620.63;;;23.55;81.14
72961;BME280;61141;46.204;19.774;2023-06-22T01:07:56;100629.34;;;23.57;81.07
72961;BME280;61141;46.204;19.774;2023-06-22T01:11:07;100612.38;;;23.39;81.95
72961;BME280;61141;46.204;19.774;2023-06-22T01:14:23;100621.31;;;23.21;82.95
72961;BME280;61141;46.204;19.774;2023-06-22T01:17:27;100626.44;;;23.23;83.07
72961;BME280;61141;46.204;19.774;2023-06-22T01:20:34;100635.41;;;23.30;82.70
72961;BME280;61141;46.204;19.774;2023-06-22T01:30:18;100644.69;;;23.40;82.65
72961;BME280;61141;46.204;19.774;2023-06-22T01:33:21;100640.63;;;23.28;83.26
72961;BME280;61141;46.204;19.774;2023-06-22T01:36:27;100648.03;;;23.22;83.57
72961;BME280;61141;46.204;19.774;2023-06-22T01:39:30;100628.59;;;23.19;83.93
72961;BME280;61141;46.204;19.774;2023-06-22T01:42:35;100633.28;;;23.22;83.75
72961;BME280;61141;46.204;19.774;2023-06-22T01:45:38;100620.31;;;23.15;84.24
72961;BME280;61141;46.204;19.774;2023-06-22T01:48:41;100610.59;;;23.07;84.41
72961;BME280;61141;46.204;19.774;2023-06-22T01:51:44;100604.19;;;23.07;84.29
72961;BME280;61141;46.204;19.774;2023-06-22T01:54:47;100599.75;;;22.97;84.86
72961;BME280;61141;46.204;19.774;2023-06-22T01:57:50;100600.31;;;22.92;84.83
72961;BME280;61141;46.204;19.774;2023-06-22T02:04:09;100597.72;;;22.85;84.90
72961;BME280;61141;46.204;19.774;2023-06-22T02:07:15;100605.22;;;22.75;85.11
72961;BME280;61141;46.204;19.774;2023-06-22T02:10:20;100617.84;;;22.67;85.58
72961;BME280;61141;46.204;19.774;2023-06-22T02:13:25;100618.84;;;22.73;85.19
72961;BME280;61141;46.204;19.774;2023-06-22T02:16:30;100628.88;;;22.70;85.05
72961;BME280;61141;46.204;19.774;2023-06-22T02:19:37;100628.78;;;22.74;84.62
72961;BME280;61141;46.204;19.774;2023-06-22T02:22:41;100641.97;;;22.73;84.58
72961;BME280;61141;46.204;19.774;2023-06-22T02:25:45;100639.06;;;22.64;84.93
72961;BME280;61141;46.204;19.774;2023-06-22T02:28:48;100640.69;;;22.62;85.05
72961;BME280;61141;46.204;19.774;2023-06-22T02:31:52;100632.69;;;22.64;85.20
72961;BME280;61141;46.204;19.774;2023-06-22T02:34:55;100623.53;;;22.63;84.97
72961;BME280;61141;46.204;19.774;2023-06-22T02:37:59;100633.09;;;22.62;84.82
72961;BME280;61141;46.204;19.774;2023-06-22T02:41:03;100633.66;;;22.57;85.07
72961;BME280;61141;46.204;19.774;2023-06-22T02:44:06;100612.28;;;22.38;86.14
72961;BME280;61141;46.204;19.774;2023-06-22T02:47:09;100640.34;;;22.47;86.09
72961;BME280;61141;46.204;19.774;2023-06-22T02:50:12;100636.53;;;22.41;86.85
72961;BME280;61141;46.204;19.774;2023-06-22T02:53:14;100636.94;;;22.40;86.21
72961;BME280;61141;46.204;19.774;2023-06-22T02:56:19;100647.78;;;22.38;86.36
72961;BME280;61141;46.204;19.774;2023-06-22T02:59:28;100631.66;;;22.16;87.43
72961;BME280;61141;46.204;19.774;2023-06-22T03:02:33;100636.91;;;22.27;87.53
72961;BME280;61141;46.204;19.774;2023-06-22T03:05:36;100646.81;;;22.15;88.49
72961;BME280;61141;46.204;19.774;2023-06-22T03:08:39;100649.12;;;22.04;89.25
72961;BME280;61141;46.204;19.774;2023-06-22T03:11:42;100651.31;;;21.97;89.81
72961;BME280;61141;46.204;19.774;2023-06-22T03:14:45;100665.81;;;21.92;90.18
72961;BME280;61141;46.204;19.774;2023-06-22T03:17:48;100668.50;;;21.95;89.80
72961;BME280;61141;46.204;19.774;2023-06-22T03:20:51;100655.78;;;21.94;89.81
72961;BME280;61141;46.204;19.774;2023-06-22T03:23:54;100655.78;;;21.94;89.86
72961;BME280;61141;46.204;19.774;2023-06-22T03:26:57;100642.94;;;21.97;89.86
72961;BME280;61141;46.204;19.774;2023-06-22T03:30:00;100648.69;;;22.06;88.71
72961;BME280;61141;46.204;19.774;2023-06-22T03:33:03;100668.81;;;22.13;88.85
72961;BME280;61141;46.204;19.774;2023-06-22T03:36:08;100664.72;;;22.02;90.44
72961;BME280;61141;46.204;19.774;2023-06-22T03:39:11;100678.44;;;21.96;90.38
72961;BME280;61141;46.204;19.774;2023-06-22T03:42:15;100676.34;;;22.00;90.18
72961;BME280;61141;46.204;19.774;2023-06-22T03:45:18;100679.03;;;22.04;90.01
72961;BME280;61141;46.204;19.774;2023-06-22T03:48:21;100682.31;;;22.15;89.57
72961;BME280;61141;46.204;19.774;2023-06-22T03:51:24;100680.91;;;22.23;89.14
72961;BME280;61141;46.204;19.774;2023-06-22T03:54:28;100673.38;;;22.36;88.24
72961;BME280;61141;46.204;19.774;2023-06-22T03:57:32;100678.75;;;22.43;88.08
72961;BME280;61141;46.204;19.774;2023-06-22T04:00:34;100676.75;;;22.56;87.42
72961;BME280;61141;46.204;19.774;2023-06-22T04:03:38;100676.12;;;22.65;87.17
72961;BME280;61141;46.204;19.774;2023-06-22T04:06:41;100683.00;;;22.76;86.68
72961;BME280;61141;46.204;19.774;2023-06-22T04:09:44;100670.38;;;22.85;86.13
72961;BME280;61141;46.204;19.774;2023-06-22T04:12:46;100674.97;;;22.91;85.95
72961;BME280;61141;46.204;19.774;2023-06-22T04:15:49;100678.66;;;23.01;85.64
72961;BME280;61141;46.204;19.774;2023-06-22T04:18:52;100681.56;;;23.10;85.59
72961;BME280;61141;46.204;19.774;2023-06-22T04:21:55;100691.75;;;23.16;85.08
72961;BME280;61141;46.204;19.774;2023-06-22T04:24:58;100690.41;;;23.21;85.02
72961;BME280;61141;46.204;19.774;2023-06-22T04:28:01;100681.13;;;23.24;84.78
72961;BME280;61141;46.204;19.774;2023-06-22T04:31:05;100683.50;;;23.38;84.08
72961;BME280;61141;46.204;19.774;2023-06-22T04:34:09;100700.72;;;23.49;84.13
72961;BME280;61141;46.204;19.774;2023-06-22T04:37:12;100690.97;;;23.66;83.53
72961;BME280;61141;46.204;19.774;2023-06-22T04:40:18;100690.50;;;23.80;82.39
72961;BME280;61141;46.204;19.774;2023-06-22T04:43:21;100692.38;;;23.83;82.85
72961;BME280;61141;46.204;19.774;2023-06-22T04:46:24;100690.09;;;24.04;81.83
72961;BME280;61141;46.204;19.774;2023-06-22T04:49:27;100689.94;;;24.20;80.66
72961;BME280;61141;46.204;19.774;2023-06-22T04:52:38;100688.91;;;24.26;80.68
72961;BME280;61141;46.204;19.774;2023-06-22T04:55:41;100686.41;;;24.41;79.75
72961;BME280;61141;46.204;19.774;2023-06-22T04:58:48;100688.88;;;24.61;78.86
72961;BME280;61141;46.204;19.774;2023-06-22T05:01:51;100695.03;;;24.77;77.74
72961;BME280;61141;46.204;19.774;2023-06-22T05:04:54;100690.75;;;24.85;78.10
72961;BME280;61141;46.204;19.774;2023-06-22T05:08:00;100686.16;;;25.00;77.85
72961;BME280;61141;46.204;19.774;2023-06-22T05:11:04;100681.34;;;25.01;77.33
72961;BME280;61141;46.204;19.774;2023-06-22T05:14:07;100686.22;;;25.09;75.69
72961;BME280;61141;46.204;19.774;2023-06-22T05:17:10;100674.94;;;25.00;76.94
72961;BME280;61141;46.204;19.774;2023-06-22T05:20:17;100683.81;;;25.39;74.57
72961;BME280;61141;46.204;19.774;2023-06-22T05:23:21;100681.50;;;25.46;74.75
72961;BME280;61141;46.204;19.774;2023-06-22T05:26:24;100680.81;;;25.64;73.90
72961;BME280;61141;46.204;19.774;2023-06-22T05:29:26;100682.28;;;25.96;72.92
72961;BME280;61141;46.204;19.774;2023-06-22T05:32:29;100685.88;;;26.33;70.95
72961;BME280;61141;46.204;19.774;2023-06-22T05:35:32;100692.75;;;26.50;69.91
72961;BME280;61141;46.204;19.774;2023-06-22T05:38:36;100690.41;;;26.39;70.82
72961;BME280;61141;46.204;19.774;2023-06-22T05:41:39;100694.91;;;26.46;69.80
72961;BME280;61141;46.204;19.774;2023-06-22T05:44:42;100690.72;;;26.50;69.58
72961;BME280;61141;46.204;19.774;2023-06-22T05:47:45;100694.91;;;26.55;69.25
72961;BME280;61141;46.204;19.774;2023-06-22T05:55:17;100696.03;;;26.48;69.47
72961;BME280;61141;46.204;19.774;2023-06-22T05:58:21;100698.69;;;26.24;68.85
72961;BME280;61141;46.204;19.774;2023-06-22T06:01:24;100714.44;;;26.49;68.94
72961;BME280;61141;46.204;19.774;2023-06-22T06:04:28;100712.41;;;26.59;68.03
72961;BME280;61141;46.204;19.774;2023-06-22T06:07:31;100716.31;;;26.52;68.70
72961;BME280;61141;46.204;19.774;2023-06-22T06:10:37;100724.44;;;26.59;69.17
72961;BME280;61141;46.204;19.774;2023-06-22T06:13:39;100704.47;;;26.48;68.49
72961;BME280;61141;46.204;19.774;2023-06-22T06:16:42;100719.13;;;26.70;67.93
72961;BME280;61141;46.204;19.774;2023-06-22T06:19:45;100707.38;;;26.72;68.46
72961;BME280;61141;46.204;19.774;2023-06-22T06:22:48;100715.81;;;26.72;68.91
72961;BME280;61141;46.204;19.774;2023-06-22T06:25:51;100702.22;;;26.89;69.18
72961;BME280;61141;46.204;19.774;2023-06-22T06:28:56;100712.81;;;27.03;67.71
72961;BME280;61141;46.204;19.774;2023-06-22T06:31:59;100711.37;;;27.07;67.56
72961;BME280;61141;46.204;19.774;2023-06-22T06:35:02;100713.22;;;27.19;67.43
72961;BME280;61141;46.204;19.774;2023-06-22T06:38:05;100717.59;;;27.20;66.83
72961;BME280;61141;46.204;19.774;2023-06-22T06:41:08;100710.81;;;27.36;67.05
72961;BME280;61141;46.204;19.774;2023-06-22T06:44:10;100708.00;;;27.36;66.87
72961;BME280;61141;46.204;19.774;2023-06-22T06:47:13;100720.94;;;27.52;66.69
72961;BME280;61141;46.204;19.774;2023-06-22T06:50:16;100717.97;;;27.46;66.07
72961;BME280;61141;46.204;19.774;2023-06-22T06:53:19;100707.78;;;27.58;65.51
72961;BME280;61141;46.204;19.774;2023-06-22T06:56:22;100717.97;;;27.79;66.10
72961;BME280;61141;46.204;19.774;2023-06-22T06:59:25;100717.00;;;27.82;65.90
72961;BME280;61141;46.204;19.774;2023-06-22T07:02:28;100721.63;;;27.94;66.40
72961;BME280;61141;46.204;19.774;2023-06-22T07:05:31;100714.25;;;28.20;64.15
72961;BME280;61141;46.204;19.774;2023-06-22T07:08:34;100718.25;;;28.28;63.39
72961;BME280;61141;46.204;19.774;2023-06-22T07:11:39;100720.91;;;28.32;63.95
72961;BME280;61141;46.204;19.774;2023-06-22T07:14:41;100701.50;;;28.48;63.14
72961;BME280;61141;46.204;19.774;2023-06-22T07:17:44;100701.16;;;28.70;62.70
72961;BME280;61141;46.204;19.774;2023-06-22T07:20:47;100688.91;;;28.73;62.98
72961;BME280;61141;46.204;19.774;2023-06-22T07:23:50;100698.16;;;28.88;61.27
72961;BME280;61141;46.204;19.774;2023-06-22T07:26:53;100700.94;;;29.03;61.46
72961;BME280;61141;46.204;19.774;2023-06-22T07:29:56;100699.69;;;29.19;61.67
72961;BME280;61141;46.204;19.774;2023-06-22T07:32:58;100694.81;;;29.19;61.49
72961;BME280;61141;46.204;19.774;2023-06-22T07:36:07;100693.19;;;29.27;60.36
72961;BME280;61141;46.204;19.774;2023-06-22T07:39:10;100695.06;;;29.36;59.62
72961;BME280;61141;46.204;19.774;2023-06-22T07:42:14;100701.41;;;29.45;59.20
72961;BME280;61141;46.204;19.774;2023-06-22T07:45:21;100699.69;;;29.68;58.87
72961;BME280;61141;46.204;19.774;2023-06-22T07:48:24;100693.81;;;29.72;58.25
72961;BME280;61141;46.204;19.774;2023-06-22T07:51:27;100689.00;;;29.78;58.51
72961;BME280;61141;46.204;19.774;2023-06-22T07:54:30;100691.66;;;29.81;58.68
72961;BME280;61141;46.204;19.774;2023-06-22T07:57:32;100690.87;;;29.81;58.00
72961;BME280;61141;46.204;19.774;2023-06-22T08:00:37;100700.22;;;29.87;57.11
72961;BME280;61141;46.204;19.774;2023-06-22T08:03:40;100701.97;;;29.84;56.60
72961;BME280;61141;46.204;19.774;2023-06-22T08:06:43;100691.81;;;29.78;56.43
72961;BME280;61141;46.204;19.774;2023-06-22T08:09:47;100697.81;;;30.00;55.85
72961;BME280;61141;46.204;19.774;2023-06-22T08:12:51;100696.22;;;30.19;55.97
72961;BME280;61141;46.204;19.774;2023-06-22T08:15:55;100699.72;;;30.08;55.75
72961;BME280;61141;46.204;19.774;2023-06-22T08:18:57;100696.59;;;30.06;56.40
72961;BME280;61141;46.204;19.774;2023-06-22T08:22:00;100699.91;;;30.45;55.12
72961;BME280;61141;46.204;19.774;2023-06-22T08:25:04;100702.91;;;30.62;54.75
72961;BME280;61141;46.204;19.774;2023-06-22T08:28:07;100699.41;;;30.72;53.96
72961;BME280;61141;46.204;19.774;2023-06-22T08:31:10;100698.56;;;30.66;54.16
72961;BME280;61141;46.204;19.774;2023-06-22T08:34:15;100706.91;;;30.75;54.43
72961;BME280;61141;46.204;19.774;2023-06-22T08:37:19;100714.34;;;31.30;52.43
72961;BME280;61141;46.204;19.774;2023-06-22T08:40:22;100693.59;;;31.44;51.75
72961;BME280;61141;46.204;19.774;2023-06-22T08:43:25;100704.03;;;31.64;50.63
72961;BME280;61141;46.204;19.774;2023-06-22T08:46:28;100691.09;;;31.57;51.32
72961;BME280;61141;46.204;19.774;2023-06-22T08:49:35;100694.47;;;31.56;51.10
72961;BME280;61141;46.204;19.774;2023-06-22T08:52:40;100691.19;;;31.74;50.96
72961;BME280;61141;46.204;19.774;2023-06-22T08:55:44;100691.53;;;31.87;49.02
72961;BME280;61141;46.204;19.774;2023-06-22T08:59:09;100695.94;;;31.93;48.29
72961;BME280;61141;46.204;19.774;2023-06-22T09:02:12;100686.22;;;32.06;49.08
72961;BME280;61141;46.204;19.774;2023-06-22T09:05:15;100696.38;;;32.45;48.19
72961;BME280;61141;46.204;19.774;2023-06-22T09:08:18;100687.87;;;32.45;47.04
72961;BME280;61141;46.204;19.774;2023-06-22T09:11:21;100689.62;;;32.26;47.59
72961;BME280;61141;46.204;19.774;2023-06-22T09:14:24;100683.56;;;32.56;47.63
72961;BME280;61141;46.204;19.774;2023-06-22T09:17:27;100679.19;;;32.66;47.58
72961;BME280;61141;46.204;19.774;2023-06-22T09:20:30;100671.44;;;32.72;48.07
72961;BME280;61141;46.204;19.774;2023-06-22T09:23:34;100686.91;;;32.54;47.86
72961;BME280;61141;46.204;19.774;2023-06-22T09:26:37;100682.47;;;32.42;48.50
72961;BME280;61141;46.204;19.774;2023-06-22T09:29:40;100677.03;;;32.33;48.84
72961;BME280;61141;46.204;19.774;2023-06-22T09:32:42;100682.00;;;32.54;49.02
72961;BME280;61141;46.204;19.774;2023-06-22T09:35:46;100677.06;;;32.44;49.27
72961;BME280;61141;46.204;19.774;2023-06-22T09:38:50;100673.44;;;32.38;49.66
72961;BME280;61141;46.204;19.774;2023-06-22T09:41:58;100679.72;;;32.97;48.66
72961;BME280;61141;46.204;19.774;2023-06-22T09:45:02;100666.78;;;32.63;50.06
72961;BME280;61141;46.204;19.774;2023-06-22T09:48:05;100673.28;;;33.25;49.07
72961;BME280;61141;46.204;19.774;2023-06-22T09:51:08;100676.22;;;32.16;51.23
72961;BME280;61141;46.204;19.774;2023-06-22T09:54:11;100674.56;;;31.92;51.41
72961;BME280;61141;46.204;19.774;2023-06-22T09:57:13;100671.09;;;32.25;51.56
72961;BME280;61141;46.204;19.774;2023-06-22T10:00:16;100678.63;;;32.45;50.39
72961;BME280;61141;46.204;19.774;2023-06-22T10:03:20;100665.53;;;32.92;49.75
72961;BME280;61141;46.204;19.774;2023-06-22T10:06:23;100669.12;;;32.92;50.24
72961;BME280;61141;46.204;19.774;2023-06-22T10:09:27;100659.31;;;32.93;49.39
72961;BME280;61141;46.204;19.774;2023-06-22T10:12:30;100662.97;;;33.16;48.69
72961;BME280;61141;46.204;19.774;2023-06-22T10:15:33;100656.75;;;33.06;49.93
72961;BME280;61141;46.204;19.774;2023-06-22T10:18:36;100649.25;;;32.59;50.21
72961;BME280;61141;46.204;19.774;2023-06-22T10:21:39;100647.97;;;32.77;51.07
72961;BME280;61141;46.204;19.774;2023-06-22T10:24:41;100644.59;;;33.00;49.95
72961;BME280;61141;46.204;19.774;2023-06-22T10:27:48;100642.00;;;33.36;49.40
72961;BME280;61141;46.204;19.774;2023-06-22T10:30:51;100643.06;;;32.99;48.67
72961;BME280;61141;46.204;19.774;2023-06-22T10:33:55;100644.34;;;33.21;49.14
72961;BME280;61141;46.204;19.774;2023-06-22T10:36:57;100638.84;;;33.61;47.36
72961;BME280;61141;46.204;19.774;2023-06-22T10:40:00;100633.34;;;33.80;46.96
72961;BME280;61141;46.204;19.774;2023-06-22T10:43:03;100636.16;;;33.91;47.08
72961;BME280;61141;46.204;19.774;2023-06-22T10:46:06;100626.34;;;33.81;47.08
72961;BME280;61141;46.204;19.774;2023-06-22T10:49:09;100615.44;;;33.96;46.97
72961;BME280;61141;46.204;19.774;2023-06-22T10:52:12;100619.28;;;34.10;46.56
72961;BME280;61141;46.204;19.774;2023-06-22T10:55:15;100623.44;;;33.01;48.84
72961;BME280;61141;46.204;19.774;2023-06-22T10:58:18;100630.41;;;34.02;46.76
72961;BME280;61141;46.204;19.774;2023-06-22T11:01:21;100630.22;;;34.36;46.08
72961;BME280;61141;46.204;19.774;2023-06-22T11:04:27;100624.38;;;34.17;45.41
72961;BME280;61141;46.204;19.774;2023-06-22T11:07:30;100620.50;;;33.62;46.67
72961;BME280;61141;46.204;19.774;2023-06-22T11:10:34;100621.53;;;34.52;45.61
72961;BME280;61141;46.204;19.774;2023-06-22T11:13:36;100609.84;;;34.26;45.83
72961;BME280;61141;46.204;19.774;2023-06-22T11:16:39;100629.63;;;34.83;44.48
72961;BME280;61141;46.204;19.774;2023-06-22T11:19:44;100624.78;;;34.73;43.50
72961;BME280;61141;46.204;19.774;2023-06-22T11:22:47;100614.84;;;34.85;43.57
72961;BME280;61141;46.204;19.774;2023-06-22T11:25:50;100610.88;;;34.64;44.50
72961;BME280;61141;46.204;19.774;2023-06-22T11:28:53;100614.19;;;34.73;44.93
72961;BME280;61141;46.204;19.774;2023-06-22T11:31:56;100602.44;;;34.12;43.95
72961;BME280;61141;46.204;19.774;2023-06-22T11:34:59;100598.56;;;34.80;44.04
72961;BME280;61141;46.204;19.774;2023-06-22T11:38:01;100601.69;;;34.82;43.40
72961;BME280;61141;46.204;19.774;2023-06-22T11:41:06;100603.88;;;34.95;44.13
72961;BME280;61141;46.204;19.774;2023-06-22T11:44:10;100600.75;;;34.98;43.86
72961;BME280;61141;46.204;19.774;2023-06-22T11:47:13;100597.13;;;34.98;44.03
72961;BME280;61141;46.204;19.774;2023-06-22T11:50:15;100595.06;;;35.22;43.46
72961;BME280;61141;46.204;19.774;2023-06-22T11:53:20;100604.31;;;35.04;43.44
72961;BME280;61141;46.204;19.774;2023-06-22T11:56:23;100599.56;;;33.65;45.63
72961;BME280;61141;46.204;19.774;2023-06-22T11:59:26;100595.34;;;34.65;43.60
72961;BME280;61141;46.204;19.774;2023-06-22T12:02:29;100594.28;;;34.98;43.66
72961;BME280;61141;46.204;19.774;2023-06-22T12:05:32;100586.66;;;35.11;43.60
72961;BME280;61141;46.204;19.774;2023-06-22T12:08:35;100588.84;;;35.24;43.62
72961;BME280;61141;46.204;19.774;2023-06-22T12:11:38;100591.31;;;35.33;41.85
72961;BME280;61141;46.204;19.774;2023-06-22T12:14:40;100581.25;;;35.32;42.75
72961;BME280;61141;46.204;19.774;2023-06-22T12:17:43;100587.81;;;35.46;42.75
72961;BME280;61141;46.204;19.774;2023-06-22T12:20:47;100577.25;;;35.16;43.35
72961;BME280;61141;46.204;19.774;2023-06-22T12:23:50;100584.88;;;35.08;44.34
72961;BME280;61141;46.204;19.774;2023-06-22T12:26:53;100564.91;;;35.57;43.49
72961;BME280;61141;46.204;19.774;2023-06-22T12:29:58;100572.84;;;35.64;44.00
72961;BME280;61141;46.204;19.774;2023-06-22T12:33:00;100564.75;;;35.68;43.07
72961;BME280;61141;46.204;19.774;2023-06-22T12:36:04;100559.91;;;35.81;42.52
72961;BME280;61141;46.204;19.774;2023-06-22T12:39:07;100557.25;;;35.46;43.56
72961;BME280;61141;46.204;19.774;2023-06-22T12:42:10;100558.91;;;35.79;43.71
72961;BME280;61141;46.204;19.774;2023-06-22T12:45:14;100549.75;;;35.43;43.61
72961;BME280;61141;46.204;19.774;2023-06-22T12:48:17;100547.12;;;35.45;43.60
72961;BME280;61141;46.204;19.774;2023-06-22T12:51:21;100555.28;;;35.35;43.73
72961;BME280;61141;46.204;19.774;2023-06-22T12:54:24;100551.00;;;35.48;43.70
72961;BME280;61141;46.204;19.774;2023-06-22T12:57:27;100547.81;;;35.57;43.48
72961;BME280;61141;46.204;19.774;2023-06-22T13:00:30;100553.19;;;35.79;43.04
72961;BME280;61141;46.204;19.774;2023-06-22T13:03:33;100540.69;;;35.63;41.91
72961;BME280;61141;46.204;19.774;2023-06-22T13:06:37;100532.59;;;35.86;42.37
72961;BME280;61141;46.204;19.774;2023-06-22T13:09:39;100539.56;;;36.09;42.22
72961;BME280;61141;46.204;19.774;2023-06-22T13:12:42;100535.41;;;35.73;42.48
72961;BME280;61141;46.204;19.774;2023-06-22T13:15:45;100526.22;;;35.61;43.07
72961;BME280;61141;46.204;19.774;2023-06-22T13:18:48;100534.22;;;35.63;43.03
72961;BME280;61141;46.204;19.774;2023-06-22T13:21:50;100520.81;;;35.95;42.92
72961;BME280;61141;46.204;19.774;2023-06-22T13:24:53;100527.28;;;36.14;42.68
72961;BME280;61141;46.204;19.774;2023-06-22T13:27:57;100511.09;;;35.66;43.27
72961;BME280;61141;46.204;19.774;2023-06-22T13:31:00;100512.91;;;35.26;43.03
72961;BME280;61141;46.204;19.774;2023-06-22T13:34:03;100507.41;;;35.90;42.43
72961;BME280;61141;46.204;19.774;2023-06-22T13:37:06;100510.25;;;35.90;43.05
72961;BME280;61141;46.204;19.774;2023-06-22T13:40:09;100517.03;;;36.06;42.23
72961;BME280;61141;46.204;19.774;2023-06-22T13:43:13;100507.31;;;35.77;41.88
72961;BME280;61141;46.204;19.774;2023-06-22T13:46:15;100503.22;;;35.91;42.13
72961;BME280;61141;46.204;19.774;2023-06-22T13:49:18;100502.31;;;35.64;42.56
72961;BME280;61141;46.204;19.774;2023-06-22T13:52:21;100494.31;;;35.63;43.30
72961;BME280;61141;46.204;19.774;2023-06-22T13:55:24;100501.28;;;35.99;42.44
72961;BME280;61141;46.204;19.774;2023-06-22T13:58:27;100493.12;;;35.53;43.25
72961;BME280;61141;46.204;19.774;2023-06-22T14:01:30;100492.56;;;36.10;42.29
72961;BME280;61141;46.204;19.774;2023-06-22T14:04:33;100488.97;;;36.10;42.13
72961;BME280;61141;46.204;19.774;2023-06-22T14:07:36;100492.72;;;36.18;41.63
72961;BME280;61141;46.204;19.774;2023-06-22T14:10:39;100485.25;;;36.60;41.12
72961;BME280;61141;46.204;19.774;2023-06-22T14:13:42;100485.28;;;36.28;41.03
72961;BME280;61141;46.204;19.774;2023-06-22T14:16:45;100470.59;;;36.37;41.16
72961;BME280;61141;46.204;19.774;2023-06-22T14:19:48;100470.00;;;36.25;41.86
72961;BME280;61141;46.204;19.774;2023-06-22T14:22:51;100465.09;;;36.26;41.75
72961;BME280;61141;46.204;19.774;2023-06-22T14:25:54;100469.41;;;36.45;41.44
72961;BME280;61141;46.204;19.774;2023-06-22T14:28:57;100468.00;;;36.65;40.73
72961;BME280;61141;46.204;19.774;2023-06-22T14:32:00;100453.94;;;36.54;41.60
72961;BME280;61141;46.204;19.774;2023-06-22T14:35:03;100459.31;;;36.71;40.76
72961;BME280;61141;46.204;19.774;2023-06-22T14:38:06;100458.69;;;36.65;41.10
72961;BME280;61141;46.204;19.774;2023-06-22T14:41:09;100464.41;;;35.69;42.58
72961;BME280;61141;46.204;19.774;2023-06-22T14:44:16;100442.69;;;36.30;41.46
72961;BME280;61141;46.204;19.774;2023-06-22T14:47:19;100441.94;;;36.42;41.51
72961;BME280;61141;46.204;19.774;2023-06-22T14:50:23;100448.31;;;36.48;42.02
72961;BME280;61141;46.204;19.774;2023-06-22T14:53:26;100447.88;;;36.44;41.55
72961;BME280;61141;46.204;19.774;2023-06-22T14:56:29;100445.53;;;36.43;41.30
72961;BME280;61141;46.204;19.774;2023-06-22T14:59:34;100442.59;;;36.48;41.51
72961;BME280;61141;46.204;19.774;2023-06-22T15:02:37;100437.44;;;36.34;41.29
72961;BME280;61141;46.204;19.774;2023-06-22T15:05:40;100428.97;;;36.28;41.96
72961;BME280;61141;46.204;19.774;2023-06-22T15:08:43;100428.62;;;36.32;41.70
72961;BME280;61141;46.204;19.774;2023-06-22T15:11:46;100435.97;;;36.27;41.96
72961;BME280;61141;46.204;19.774;2023-06-22T15:14:48;100431.13;;;36.09;42.15
72961;BME280;61141;46.204;19.774;2023-06-22T15:17:52;100424.97;;;36.18;42.29
72961;BME280;61141;46.204;19.774;2023-06-22T15:20:55;100419.47;;;36.52;41.61
72961;BME280;61141;46.204;19.774;2023-06-22T15:23:58;100419.41;;;36.26;42.29
72961;BME280;61141;46.204;19.774;2023-06-22T15:27:00;100423.84;;;36.40;42.12
72961;BME280;61141;46.204;19.774;2023-06-22T15:30:04;100415.84;;;35.75;42.69
72961;BME280;61141;46.204;19.774;2023-06-22T15:33:07;100421.06;;;35.89;42.87
72961;BME280;61141;46.204;19.774;2023-06-22T15:36:10;100412.03;;;36.17;42.69
72961;BME280;61141;46.204;19.774;2023-06-22T15:39:13;100410.50;;;36.16;42.86
72961;BME280;61141;46.204;19.774;2023-06-22T15:42:16;100406.75;;;36.21;42.40
72961;BME280;61141;46.204;19.774;2023-06-22T15:45:19;100414.25;;;36.24;42.49
72961;BME280;61141;46.204;19.774;2023-06-22T15:48:22;100409.25;;;35.99;43.25
72961;BME280;61141;46.204;19.774;2023-06-22T15:51:24;100417.72;;;35.85;43.82
72961;BME280;61141;46.204;19.774;2023-06-22T15:54:27;100407.63;;;36.03;43.09
72961;BME280;61141;46.204;19.774;2023-06-22T15:57:30;100413.19;;;35.95;43.32
72961;BME280;61141;46.204;19.774;2023-06-22T16:00:33;100406.87;;;36.16;42.72